createdAt,value
2017-07-29T00:01:03.908Z,0
2017-07-29T00:02:14.443Z,0
2017-07-29T00:03:24.705Z,0
2017-07-29T00:04:34.986Z,0
2017-07-29T00:05:44.954Z,0
2017-07-29T00:06:55.228Z,0
2017-07-29T00:08:05.761Z,0
2017-07-29T00:09:16.048Z,0
2017-07-29T00:10:26.014Z,0
2017-07-29T00:11:35.980Z,0
2017-07-29T00:12:46.257Z,0
2017-07-29T00:13:56.812Z,0
2017-07-29T00:15:07.107Z,0
2017-07-29T00:16:17.067Z,0
2017-07-29T00:17:27.354Z,0
2017-07-29T00:18:37.609Z,0
2017-07-29T00:19:48.134Z,0
2017-07-29T00:20:58.424Z,0
2017-07-29T00:22:08.696Z,0
2017-07-29T00:23:18.354Z,0
2017-07-29T00:24:28.604Z,0
2017-07-29T00:25:38.818Z,0
2017-07-29T00:26:48.791Z,0
2017-07-29T00:27:59.079Z,0
2017-07-29T00:29:09.035Z,0
2017-07-29T00:30:18.990Z,0
2017-07-29T00:31:29.529Z,0
2017-07-29T00:32:39.819Z,0
2017-07-29T00:33:50.091Z,0
2017-07-29T00:35:00.047Z,0
2017-07-29T00:36:10.329Z,0
2017-07-29T00:37:20.549Z,0
2017-07-29T00:38:30.819Z,0
2017-07-29T00:39:40.468Z,0
2017-07-29T00:40:50.426Z,0
2017-07-29T00:42:00.701Z,0
2017-07-29T00:43:10.916Z,0
2017-07-29T00:44:21.192Z,0
2017-07-29T00:45:31.462Z,0
2017-07-29T00:46:41.736Z,0
2017-07-29T00:47:51.688Z,0
2017-07-29T00:49:02.227Z,0
2017-07-29T00:50:12.504Z,0
2017-07-29T00:51:22.772Z,0
2017-07-29T00:52:33.054Z,0
2017-07-29T00:53:43.030Z,0
2017-07-29T00:54:53.554Z,0
2017-07-29T00:56:03.832Z,0
2017-07-29T00:57:14.120Z,0
2017-07-29T00:58:24.068Z,0
2017-07-29T00:59:34.014Z,0
2017-07-29T01:00:44.218Z,0
2017-07-29T01:01:54.173Z,0
2017-07-29T01:03:04.449Z,0
2017-07-29T01:04:14.719Z,0
2017-07-29T01:05:24.368Z,0
2017-07-29T01:06:34.901Z,0
2017-07-29T01:07:45.203Z,0
2017-07-29T01:08:54.852Z,0
2017-07-29T01:10:05.115Z,0
2017-07-29T01:11:15.391Z,0
2017-07-29T01:12:25.908Z,0
2017-07-29T01:13:36.199Z,0
2017-07-29T01:14:46.153Z,0
2017-07-29T01:15:55.805Z,0
2017-07-29T01:17:06.078Z,0
2017-07-29T01:18:16.296Z,0
2017-07-29T01:19:26.276Z,0
2017-07-29T01:20:36.549Z,0
2017-07-29T01:21:46.839Z,0
2017-07-29T01:22:57.118Z,0
2017-07-29T01:24:07.678Z,0
2017-07-29T01:25:17.981Z,0
2017-07-29T01:26:28.256Z,0
2017-07-29T01:27:38.534Z,0
2017-07-29T01:28:48.809Z,0
2017-07-29T01:29:59.026Z,0
2017-07-29T01:31:08.996Z,0
2017-07-29T01:32:18.974Z,0
2017-07-29T01:33:28.943Z,0
2017-07-29T01:34:39.202Z,0
2017-07-29T01:35:49.726Z,0
2017-07-29T01:36:59.699Z,0
2017-07-29T01:38:09.977Z,0
2017-07-29T01:39:20.263Z,0
2017-07-29T01:40:30.556Z,0
2017-07-29T01:41:40.472Z,0
2017-07-29T01:42:50.449Z,0
2017-07-29T01:44:00.421Z,0
2017-07-29T01:45:10.687Z,0
2017-07-29T01:46:20.965Z,0
2017-07-29T01:47:31.493Z,0
2017-07-29T01:48:41.766Z,0
2017-07-29T01:49:51.726Z,0
2017-07-29T01:51:01.709Z,0
2017-07-29T01:52:11.976Z,0
2017-07-29T01:53:22.572Z,0
2017-07-29T01:54:32.539Z,0
2017-07-29T01:55:42.513Z,0
2017-07-29T01:56:52.800Z,0
2017-07-29T01:58:02.766Z,0
2017-07-29T01:59:12.982Z,0
2017-07-29T02:00:22.942Z,0
2017-07-29T02:01:33.196Z,0
2017-07-29T02:02:43.164Z,0
2017-07-29T02:03:53.427Z,0
2017-07-29T02:05:03.940Z,0
2017-07-29T02:06:14.235Z,0
2017-07-29T02:07:24.214Z,0
2017-07-29T02:08:34.174Z,0
2017-07-29T02:09:44.453Z,0
2017-07-29T02:10:54.677Z,0
2017-07-29T02:12:04.646Z,0
2017-07-29T02:13:14.313Z,0
2017-07-29T02:14:24.593Z,0
2017-07-29T02:15:34.857Z,0
2017-07-29T02:16:44.776Z,0
2017-07-29T02:17:55.061Z,0
2017-07-29T02:19:05.016Z,0
2017-07-29T02:20:15.294Z,0
2017-07-29T02:21:25.569Z,0
2017-07-29T02:22:35.781Z,0
2017-07-29T02:23:46.051Z,0
2017-07-29T02:24:56.321Z,0
2017-07-29T02:26:06.595Z,0
2017-07-29T02:27:16.886Z,0
2017-07-29T02:28:27.104Z,0
2017-07-29T02:29:37.386Z,0
2017-07-29T02:30:47.333Z,0
2017-07-29T02:31:57.322Z,0
2017-07-29T02:33:07.609Z,0
2017-07-29T02:34:18.149Z,0
2017-07-29T02:35:27.814Z,0
2017-07-29T02:36:38.092Z,0
2017-07-29T02:37:48.060Z,0
2017-07-29T02:38:58.010Z,0
2017-07-29T02:40:08.228Z,0
2017-07-29T02:41:18.185Z,0
2017-07-29T02:42:28.164Z,0
2017-07-29T02:43:37.805Z,0
2017-07-29T02:44:48.088Z,0
2017-07-29T02:45:58.314Z,0
2017-07-29T02:47:08.593Z,0
2017-07-29T02:48:18.887Z,0
2017-07-29T02:49:29.155Z,0
2017-07-29T02:50:39.119Z,0
2017-07-29T02:51:49.651Z,0
2017-07-29T02:52:59.322Z,0
2017-07-29T02:54:09.604Z,0
2017-07-29T02:55:19.894Z,0
2017-07-29T02:56:29.861Z,0
2017-07-29T02:57:40.058Z,0
2017-07-29T02:58:50.021Z,0
2017-07-29T03:00:00.308Z,0
2017-07-29T03:01:10.277Z,0
2017-07-29T03:02:20.547Z,0
2017-07-29T03:03:30.454Z,0
2017-07-29T03:04:40.718Z,0
2017-07-29T03:05:51.007Z,0
2017-07-29T03:07:01.297Z,0
2017-07-29T03:08:11.577Z,0
2017-07-29T03:09:22.095Z,0
2017-07-29T03:10:32.381Z,0
2017-07-29T03:11:42.650Z,0
2017-07-29T03:12:52.935Z,0
2017-07-29T03:14:02.904Z,0
2017-07-29T03:15:13.121Z,5
2017-07-29T03:16:23.397Z,5
2017-07-29T03:17:33.680Z,5
2017-07-29T03:18:43.638Z,5
2017-07-29T03:19:53.297Z,5
2017-07-29T03:21:03.806Z,5
2017-07-29T03:22:13.765Z,5
2017-07-29T03:23:24.063Z,5
2017-07-29T03:24:34.334Z,5
2017-07-29T03:25:44.307Z,10
2017-07-29T03:26:54.529Z,10
2017-07-29T03:28:04.791Z,10
2017-07-29T03:29:15.070Z,10
2017-07-29T03:30:25.352Z,10
2017-07-29T03:31:35.019Z,10
2017-07-29T03:32:45.223Z,15
2017-07-29T03:33:55.486Z,15
2017-07-29T03:35:05.783Z,15
2017-07-29T03:36:16.075Z,15
2017-07-29T03:37:26.033Z,20
2017-07-29T03:38:36.553Z,20
2017-07-29T03:39:46.819Z,20
2017-07-29T03:40:57.079Z,25
2017-07-29T03:42:07.359Z,25
2017-07-29T03:43:17.632Z,25
2017-07-29T03:44:28.161Z,25
2017-07-29T03:45:38.431Z,30
2017-07-29T03:46:48.725Z,30
2017-07-29T03:47:58.995Z,30
2017-07-29T03:49:08.952Z,35
2017-07-29T03:50:19.186Z,35
2017-07-29T03:51:29.456Z,35
2017-07-29T03:52:39.732Z,40
2017-07-29T03:53:50.013Z,40
2017-07-29T03:54:59.978Z,45
2017-07-29T03:56:09.886Z,45
2017-07-29T03:57:19.852Z,50
2017-07-29T03:58:29.818Z,55
2017-07-29T03:59:39.797Z,55
2017-07-29T04:00:49.751Z,60
2017-07-29T04:01:59.963Z,65
2017-07-29T04:03:09.926Z,70
2017-07-29T04:04:19.889Z,70
2017-07-29T04:05:30.152Z,75
2017-07-29T04:06:40.429Z,75
2017-07-29T04:07:50.969Z,75
2017-07-29T04:09:01.237Z,75
2017-07-29T04:10:11.550Z,75
2017-07-29T04:11:21.835Z,75
2017-07-29T04:12:32.127Z,70
2017-07-29T04:13:42.652Z,70
2017-07-29T04:14:52.931Z,70
2017-07-29T04:16:02.904Z,75
2017-07-29T04:17:12.559Z,75
2017-07-29T04:18:22.825Z,75
2017-07-29T04:19:33.039Z,80
2017-07-29T04:20:43.010Z,85
2017-07-29T04:21:52.669Z,85
2017-07-29T04:23:02.967Z,90
2017-07-29T04:24:13.242Z,90
2017-07-29T04:25:23.160Z,90
2017-07-29T04:26:33.430Z,95
2017-07-29T04:27:43.717Z,100
2017-07-29T04:28:53.984Z,105
2017-07-29T04:30:04.257Z,105
2017-07-29T04:31:14.793Z,110
2017-07-29T04:32:25.070Z,115
2017-07-29T04:33:35.342Z,120
2017-07-29T04:34:45.306Z,125
2017-07-29T04:35:55.587Z,125
2017-07-29T04:37:06.110Z,130
2017-07-29T04:38:16.098Z,135
2017-07-29T04:39:26.373Z,135
2017-07-29T04:40:36.646Z,140
2017-07-29T04:41:46.909Z,140
2017-07-29T04:42:57.134Z,150
2017-07-29T04:44:06.778Z,155
2017-07-29T04:45:17.054Z,160
2017-07-29T04:46:27.029Z,165
2017-07-29T04:47:37.305Z,165
2017-07-29T04:48:47.566Z,165
2017-07-29T04:49:57.221Z,160
2017-07-29T04:51:07.190Z,145
2017-07-29T04:52:17.161Z,125
2017-07-29T04:53:27.128Z,110
2017-07-29T04:54:37.649Z,100
2017-07-29T04:55:47.928Z,100
2017-07-29T04:56:58.217Z,120
2017-07-29T04:58:08.491Z,125
2017-07-29T04:59:18.498Z,120
2017-07-29T05:00:29.029Z,115
2017-07-29T05:01:39.305Z,110
2017-07-29T05:02:49.579Z,110
2017-07-29T05:03:59.238Z,110
2017-07-29T05:05:09.520Z,115
2017-07-29T05:06:19.731Z,120
2017-07-29T05:07:29.995Z,125
2017-07-29T05:08:40.280Z,135
2017-07-29T05:09:50.551Z,140
2017-07-29T05:11:00.514Z,150
2017-07-29T05:12:11.099Z,150
2017-07-29T05:13:21.387Z,150
2017-07-29T05:14:30.413Z,145
2017-07-29T05:15:40.380Z,140
2017-07-29T05:16:50.642Z,135
2017-07-29T05:18:00.853Z,130
2017-07-29T05:19:10.808Z,125
2017-07-29T05:20:21.080Z,130
2017-07-29T05:21:31.370Z,130
2017-07-29T05:22:41.329Z,125
2017-07-29T05:23:51.844Z,125
2017-07-29T05:25:01.805Z,130
2017-07-29T05:26:12.088Z,130
2017-07-29T05:27:22.057Z,130
2017-07-29T05:28:31.705Z,135
2017-07-29T05:29:41.910Z,135
2017-07-29T05:30:52.174Z,140
2017-07-29T05:32:01.833Z,140
2017-07-29T05:33:12.119Z,150
2017-07-29T05:34:22.425Z,155
2017-07-29T05:35:32.958Z,170
2017-07-29T05:36:43.231Z,190
2017-07-29T05:37:53.507Z,210
2017-07-29T05:39:03.816Z,225
2017-07-29T05:40:14.091Z,240
2017-07-29T05:41:24.317Z,255
2017-07-29T05:42:34.310Z,270
2017-07-29T05:43:43.938Z,280
2017-07-29T05:44:53.894Z,310
2017-07-29T05:46:04.167Z,350
2017-07-29T05:47:14.391Z,360
2017-07-29T05:48:24.363Z,345
2017-07-29T05:49:34.630Z,315
2017-07-29T05:50:44.592Z,295
2017-07-29T05:51:54.872Z,295
2017-07-29T05:53:04.770Z,315
2017-07-29T05:54:14.441Z,340
2017-07-29T05:55:24.718Z,350
2017-07-29T05:56:34.992Z,350
2017-07-29T05:57:44.965Z,345
2017-07-29T05:58:55.501Z,350
2017-07-29T06:00:05.798Z,360
2017-07-29T06:01:16.082Z,360
2017-07-29T06:02:26.065Z,335
2017-07-29T06:03:36.025Z,275
2017-07-29T06:04:46.242Z,210
2017-07-29T06:05:56.522Z,195
2017-07-29T06:07:06.812Z,200
2017-07-29T06:08:17.328Z,215
2017-07-29T06:09:27.609Z,235
2017-07-29T06:10:37.819Z,250
2017-07-29T06:11:48.087Z,255
2017-07-29T06:12:58.066Z,265
2017-07-29T06:14:08.343Z,300
2017-07-29T06:15:18.632Z,390
2017-07-29T06:16:29.160Z,455
2017-07-29T06:17:39.430Z,430
2017-07-29T06:18:49.405Z,415
2017-07-29T06:19:59.686Z,395
2017-07-29T06:21:09.653Z,350
2017-07-29T06:22:24.319Z,320
2017-07-29T06:23:34.606Z,315
2017-07-29T06:24:44.577Z,315
2017-07-29T06:25:54.857Z,305
2017-07-29T06:27:05.124Z,305
2017-07-29T06:28:15.680Z,305
2017-07-29T06:29:25.967Z,315
2017-07-29T06:30:35.317Z,310
2017-07-29T06:31:45.296Z,315
2017-07-29T06:32:55.583Z,335
2017-07-29T06:34:06.179Z,370
2017-07-29T06:35:16.140Z,415
2017-07-29T06:36:26.427Z,465
2017-07-29T06:37:36.726Z,500
2017-07-29T06:38:46.685Z,515
2017-07-29T06:39:57.211Z,550
2017-07-29T06:41:07.500Z,590
2017-07-29T06:42:17.473Z,635
2017-07-29T06:43:27.763Z,635
2017-07-29T06:44:38.056Z,550
2017-07-29T06:45:47.361Z,445
2017-07-29T06:46:57.652Z,390
2017-07-29T06:48:07.929Z,395
2017-07-29T06:49:17.885Z,395
2017-07-29T06:50:27.841Z,395
2017-07-29T06:51:37.760Z,430
2017-07-29T06:52:48.043Z,475
2017-07-29T06:53:58.328Z,475
2017-07-29T06:55:08.295Z,480
2017-07-29T06:56:18.565Z,490
2017-07-29T06:57:28.482Z,475
2017-07-29T06:58:38.443Z,445
2017-07-29T06:59:48.717Z,435
2017-07-29T07:00:59.011Z,405
2017-07-29T07:02:09.008Z,355
2017-07-29T07:03:19.542Z,330
2017-07-29T07:04:29.497Z,325
2017-07-29T07:05:39.478Z,335
2017-07-29T07:06:49.458Z,335
2017-07-29T07:07:59.433Z,340
2017-07-29T07:09:09.956Z,355
2017-07-29T07:10:20.226Z,370
2017-07-29T07:11:30.489Z,375
2017-07-29T07:12:40.783Z,370
2017-07-29T07:13:51.056Z,365
2017-07-29T07:15:01.280Z,380
2017-07-29T07:16:11.246Z,400
2017-07-29T07:17:21.529Z,370
2017-07-29T07:18:31.818Z,345
2017-07-29T07:19:42.110Z,315
2017-07-29T07:20:52.340Z,300
2017-07-29T07:22:02.644Z,330
2017-07-29T07:23:12.920Z,385
2017-07-29T07:24:22.565Z,430
2017-07-29T07:25:32.560Z,465
2017-07-29T07:26:42.793Z,490
2017-07-29T07:27:53.078Z,470
2017-07-29T07:29:03.362Z,385
2017-07-29T07:30:13.627Z,325
2017-07-29T07:31:23.594Z,300
2017-07-29T07:32:34.121Z,305
2017-07-29T07:33:44.396Z,325
2017-07-29T07:34:54.699Z,330
2017-07-29T07:36:04.675Z,355
2017-07-29T07:37:14.951Z,395
2017-07-29T07:38:25.501Z,405
2017-07-29T07:39:35.773Z,370
2017-07-29T07:40:46.063Z,340
2017-07-29T07:41:56.033Z,330
2017-07-29T07:43:06.302Z,335
2017-07-29T07:44:16.528Z,330
2017-07-29T07:45:26.817Z,330
2017-07-29T07:46:37.110Z,320
2017-07-29T07:47:47.080Z,325
2017-07-29T07:48:57.050Z,365
2017-07-29T07:50:07.265Z,390
2017-07-29T07:51:17.548Z,420
2017-07-29T07:52:27.817Z,410
2017-07-29T07:53:37.803Z,380
2017-07-29T07:54:48.081Z,325
2017-07-29T07:55:58.311Z,310
2017-07-29T07:57:08.586Z,305
2017-07-29T07:58:18.246Z,330
2017-07-29T07:59:28.537Z,345
2017-07-29T08:00:38.826Z,370
2017-07-29T08:01:49.399Z,395
2017-07-29T08:02:59.681Z,380
2017-07-29T08:04:09.968Z,385
2017-07-29T08:05:20.244Z,455
2017-07-29T08:06:30.540Z,545
2017-07-29T08:07:40.748Z,615
2017-07-29T08:08:50.700Z,680
2017-07-29T08:10:00.963Z,745
2017-07-29T08:11:11.237Z,820
2017-07-29T08:12:21.199Z,860
2017-07-29T08:13:31.730Z,865
2017-07-29T08:14:41.696Z,870
2017-07-29T08:15:51.972Z,905
2017-07-29T08:17:01.950Z,930
2017-07-29T08:18:12.234Z,910
2017-07-29T08:19:22.135Z,900
2017-07-29T08:20:32.101Z,920
2017-07-29T08:21:42.385Z,940
2017-07-29T08:22:52.710Z,920
2017-07-29T08:24:02.994Z,875
2017-07-29T08:25:13.529Z,895
2017-07-29T08:26:23.537Z,895
2017-07-29T08:27:33.813Z,820
2017-07-29T08:28:44.106Z,710
2017-07-29T08:29:54.374Z,620
2017-07-29T08:31:04.935Z,590
2017-07-29T08:32:14.914Z,585
2017-07-29T08:33:25.206Z,590
2017-07-29T08:34:35.184Z,570
2017-07-29T08:35:45.152Z,720
2017-07-29T08:36:55.737Z,1185
2017-07-29T08:38:06.026Z,905
2017-07-29T08:39:16.027Z,935
2017-07-29T08:40:26.317Z,765
2017-07-29T08:41:36.591Z,600
2017-07-29T08:42:47.097Z,810
2017-07-29T08:43:57.072Z,945
2017-07-29T08:45:07.363Z,1245
2017-07-29T08:46:17.347Z,1220
2017-07-29T08:47:27.320Z,1190
2017-07-29T08:48:37.538Z,1235
2017-07-29T08:49:47.828Z,1260
2017-07-29T08:50:57.795Z,1315
2017-07-29T08:52:07.779Z,1410
2017-07-29T08:53:18.069Z,1390
2017-07-29T08:54:28.286Z,1310
2017-07-29T08:55:38.245Z,1410
2017-07-29T08:56:48.226Z,1340
2017-07-29T08:57:58.511Z,1380
2017-07-29T08:59:08.473Z,1450
2017-07-29T09:00:18.714Z,1435
2017-07-29T09:01:28.691Z,1435
2017-07-29T09:02:38.661Z,1420
2017-07-29T09:03:48.658Z,1400
2017-07-29T09:04:58.959Z,1470
2017-07-29T09:06:09.494Z,1445
2017-07-29T09:07:19.474Z,1395
2017-07-29T09:08:29.443Z,1405
2017-07-29T09:09:39.729Z,1490
2017-07-29T09:10:50.032Z,1505
2017-07-29T09:12:00.253Z,1510
2017-07-29T09:13:10.241Z,1510
2017-07-29T09:14:20.225Z,1925
2017-07-29T09:15:30.210Z,1745
2017-07-29T09:16:40.183Z,1610
2017-07-29T09:17:50.705Z,1700
2017-07-29T09:19:00.976Z,1690
2017-07-29T09:20:10.949Z,1725
2017-07-29T09:21:21.235Z,1845
2017-07-29T09:22:31.560Z,1865
2017-07-29T09:23:42.077Z,1870
2017-07-29T09:24:52.043Z,1940
2017-07-29T09:26:02.049Z,1945
2017-07-29T09:27:12.012Z,2100
2017-07-29T09:28:22.323Z,2145
2017-07-29T09:29:32.550Z,2130
2017-07-29T09:30:42.552Z,1925
2017-07-29T09:31:52.851Z,1950
2017-07-29T09:33:03.123Z,1965
2017-07-29T09:34:13.428Z,1920
2017-07-29T09:35:23.966Z,905
2017-07-29T09:36:33.938Z,860
2017-07-29T09:37:44.229Z,1005
2017-07-29T09:38:54.523Z,1275
2017-07-29T09:40:04.507Z,1085
2017-07-29T09:41:14.743Z,1010
2017-07-29T09:42:24.714Z,1340
2017-07-29T09:43:34.714Z,2405
2017-07-29T09:44:45.007Z,2080
2017-07-29T09:45:54.989Z,2060
2017-07-29T09:47:05.532Z,2690
2017-07-29T09:48:15.527Z,1710
2017-07-29T09:49:25.830Z,1275
2017-07-29T09:50:35.825Z,1420
2017-07-29T09:51:46.126Z,1375
2017-07-29T09:52:56.703Z,1275
2017-07-29T09:54:07.042Z,1265
2017-07-29T09:55:17.345Z,1215
2017-07-29T09:56:27.640Z,1330
2017-07-29T09:57:37.906Z,1505
2017-07-29T09:58:48.157Z,1260
2017-07-29T09:59:58.457Z,1500
2017-07-29T10:01:08.753Z,2305
2017-07-29T10:02:18.432Z,1845
2017-07-29T10:03:28.417Z,1620
2017-07-29T10:04:38.963Z,1115
2017-07-29T10:05:48.925Z,1565
2017-07-29T10:06:59.217Z,2485
2017-07-29T10:08:09.534Z,1215
2017-07-29T10:09:19.522Z,2655
2017-07-29T10:10:30.061Z,1260
2017-07-29T10:11:40.361Z,2530
2017-07-29T10:12:50.656Z,2470
2017-07-29T10:14:00.654Z,2490
2017-07-29T10:15:10.334Z,2550
2017-07-29T10:16:20.562Z,1405
2017-07-29T10:17:30.535Z,2340
2017-07-29T10:18:39.888Z,2390
2017-07-29T10:19:49.872Z,2585
2017-07-29T10:21:00.140Z,2620
2017-07-29T10:22:10.687Z,2765
2017-07-29T10:23:20.663Z,2705
2017-07-29T10:24:30.937Z,2655
2017-07-29T10:25:41.237Z,1780
2017-07-29T10:26:51.216Z,1420
2017-07-29T10:28:01.754Z,2380
2017-07-29T10:29:11.419Z,1540
2017-07-29T10:30:21.732Z,2120
2017-07-29T10:31:32.041Z,1405
2017-07-29T10:32:42.312Z,1850
2017-07-29T10:33:52.242Z,1605
2017-07-29T10:35:02.229Z,1755
2017-07-29T10:36:12.540Z,1320
2017-07-29T10:37:22.829Z,3180
2017-07-29T10:38:33.125Z,3155
2017-07-29T10:39:43.356Z,2275
2017-07-29T10:40:53.359Z,3225
2017-07-29T10:42:03.653Z,1695
2017-07-29T10:43:13.933Z,1430
2017-07-29T10:44:24.233Z,3050
2017-07-29T10:45:34.783Z,3005
2017-07-29T10:46:45.077Z,1685
2017-07-29T10:47:55.374Z,1015
2017-07-29T10:49:05.377Z,2635
2017-07-29T10:50:15.670Z,2905
2017-07-29T10:51:25.895Z,2595
2017-07-29T10:52:36.187Z,2520
2017-07-29T10:53:46.167Z,2735
2017-07-29T10:54:56.460Z,3090
2017-07-29T10:56:06.435Z,3105
2017-07-29T10:57:16.979Z,3365
2017-07-29T10:58:27.292Z,2015
2017-07-29T10:59:37.579Z,1295
2017-07-29T11:00:47.599Z,1210
2017-07-29T11:01:57.589Z,1190
2017-07-29T11:03:08.157Z,1075
2017-07-29T11:04:18.458Z,1545
2017-07-29T11:05:28.124Z,1375
2017-07-29T11:06:38.134Z,990
2017-07-29T11:07:48.422Z,940
2017-07-29T11:08:58.973Z,970
2017-07-29T11:10:09.261Z,1125
2017-07-29T11:11:19.543Z,1085
2017-07-29T11:12:29.222Z,1005
2017-07-29T11:13:39.512Z,950
2017-07-29T11:14:49.775Z,890
2017-07-29T11:16:00.070Z,830
2017-07-29T11:17:10.372Z,755
2017-07-29T11:18:20.680Z,720
2017-07-29T11:19:30.651Z,705
2017-07-29T11:20:41.192Z,685
2017-07-29T11:21:51.481Z,650
2017-07-29T11:23:01.761Z,615
2017-07-29T11:24:12.039Z,630
2017-07-29T11:25:22.011Z,735
2017-07-29T11:26:32.564Z,850
2017-07-29T11:27:42.847Z,920
2017-07-29T11:28:52.830Z,945
2017-07-29T11:30:02.812Z,1000
2017-07-29T11:31:12.790Z,1025
2017-07-29T11:32:23.321Z,1020
2017-07-29T11:33:33.298Z,980
2017-07-29T11:34:43.587Z,920
2017-07-29T11:35:53.262Z,905
2017-07-29T11:37:03.525Z,885
2017-07-29T11:38:14.072Z,910
2017-07-29T11:39:24.029Z,945
2017-07-29T11:40:33.689Z,1005
2017-07-29T11:41:43.975Z,1120
2017-07-29T11:42:54.290Z,1310
2017-07-29T11:44:03.881Z,1510
2017-07-29T11:45:13.835Z,1580
2017-07-29T11:46:24.149Z,1495
2017-07-29T11:47:34.134Z,1520
2017-07-29T11:48:44.431Z,1645
2017-07-29T11:49:54.666Z,1620
2017-07-29T11:51:04.955Z,1540
2017-07-29T11:52:15.240Z,1540
2017-07-29T11:53:25.547Z,1475
2017-07-29T11:54:35.842Z,1285
2017-07-29T11:55:46.081Z,1175
2017-07-29T11:56:56.367Z,1140
2017-07-29T11:58:06.678Z,1105
2017-07-29T11:59:16.965Z,1245
2017-07-29T12:00:27.246Z,1345
2017-07-29T12:01:37.788Z,3685
2017-07-29T12:02:48.066Z,3615
2017-07-29T12:03:58.347Z,3560
2017-07-29T12:05:08.635Z,1520
2017-07-29T12:06:18.936Z,2020
2017-07-29T12:07:29.522Z,3625
2017-07-29T12:08:39.497Z,2035
2017-07-29T12:09:49.796Z,1690
2017-07-29T12:11:00.086Z,1860
2017-07-29T12:12:09.449Z,1555
2017-07-29T12:13:19.678Z,1730
2017-07-29T12:14:29.962Z,2505
2017-07-29T12:15:40.260Z,1945
2017-07-29T12:16:50.555Z,1325
2017-07-29T12:18:00.853Z,1150
2017-07-29T12:19:11.393Z,1025
2017-07-29T12:20:21.375Z,975
2017-07-29T12:21:31.657Z,1145
2017-07-29T12:22:41.969Z,3505
2017-07-29T12:23:52.262Z,1070
2017-07-29T12:25:02.486Z,870
2017-07-29T12:26:12.787Z,860
2017-07-29T12:27:23.069Z,1000
2017-07-29T12:28:33.050Z,1205
2017-07-29T12:29:43.338Z,1770
2017-07-29T12:30:53.254Z,1545
2017-07-29T12:32:03.557Z,1695
2017-07-29T12:33:13.218Z,1470
2017-07-29T12:34:23.526Z,2060
2017-07-29T12:35:33.189Z,2105
2017-07-29T12:36:43.736Z,3490
2017-07-29T12:37:54.031Z,3400
2017-07-29T12:39:04.334Z,3530
2017-07-29T12:40:14.642Z,3575
2017-07-29T12:41:24.309Z,3570
2017-07-29T12:42:34.848Z,3600
2017-07-29T12:43:45.172Z,3595
2017-07-29T12:44:55.151Z,3445
2017-07-29T12:46:05.448Z,2995
2017-07-29T12:47:15.736Z,2890
2017-07-29T12:48:26.215Z,2570
2017-07-29T12:49:36.538Z,2575
2017-07-29T12:50:46.520Z,2760
2017-07-29T12:51:56.820Z,2830
2017-07-29T12:53:06.822Z,3495
2017-07-29T12:54:17.376Z,3575
2017-07-29T12:55:27.672Z,3680
2017-07-29T12:56:37.977Z,3665
2017-07-29T12:57:47.969Z,1035
2017-07-29T12:58:58.269Z,3190
2017-07-29T13:00:08.499Z,3340
2017-07-29T13:01:18.806Z,2110
2017-07-29T13:02:28.774Z,2100
2017-07-29T13:03:39.077Z,3305
2017-07-29T13:04:49.369Z,950
2017-07-29T13:05:59.906Z,1030
2017-07-29T13:07:09.909Z,1435
2017-07-29T13:08:20.176Z,2225
2017-07-29T13:09:30.157Z,3120
2017-07-29T13:10:40.133Z,3905
2017-07-29T13:11:50.373Z,4135
2017-07-29T13:13:00.053Z,3890
2017-07-29T13:14:09.718Z,3885
2017-07-29T13:15:20.010Z,3820
2017-07-29T13:16:30.310Z,1090
2017-07-29T13:17:40.872Z,3730
2017-07-29T13:18:50.538Z,3410
2017-07-29T13:20:00.828Z,3740
2017-07-29T13:21:10.782Z,3880
2017-07-29T13:22:20.767Z,4060
2017-07-29T13:23:31.304Z,4010
2017-07-29T13:24:41.591Z,3655
2017-07-29T13:25:51.867Z,3400
2017-07-29T13:27:01.843Z,3460
2017-07-29T13:28:12.143Z,3810
2017-07-29T13:29:22.095Z,3875
2017-07-29T13:30:32.383Z,3880
2017-07-29T13:31:42.362Z,3690
2017-07-29T13:32:52.673Z,3670
2017-07-29T13:34:02.978Z,3785
2017-07-29T13:35:13.539Z,3785
2017-07-29T13:36:23.529Z,3865
2017-07-29T13:37:33.507Z,3765
2017-07-29T13:38:43.481Z,3730
2017-07-29T13:39:53.468Z,3575
2017-07-29T13:41:04.014Z,3670
2017-07-29T13:42:13.698Z,3635
2017-07-29T13:43:23.999Z,1180
2017-07-29T13:44:33.676Z,1235
2017-07-29T13:45:43.965Z,1110
2017-07-29T13:46:53.564Z,740
2017-07-29T13:48:03.546Z,710
2017-07-29T13:49:13.849Z,770
2017-07-29T13:50:23.214Z,860
2017-07-29T13:51:32.887Z,1010
2017-07-29T13:52:43.434Z,1155
2017-07-29T13:53:53.423Z,1770
2017-07-29T13:55:03.706Z,3060
2017-07-29T13:56:13.708Z,890
2017-07-29T13:57:24.021Z,3290
2017-07-29T13:58:34.565Z,3265
2017-07-29T13:59:44.550Z,3825
2017-07-29T14:00:54.818Z,3795
2017-07-29T14:02:05.126Z,3780
2017-07-29T14:03:15.433Z,3170
2017-07-29T14:04:25.724Z,3655
2017-07-29T14:05:35.706Z,3640
2017-07-29T14:06:45.672Z,3685
2017-07-29T14:07:55.651Z,3585
2017-07-29T14:09:05.945Z,2720
2017-07-29T14:10:16.484Z,1310
2017-07-29T14:11:26.462Z,930
2017-07-29T14:12:36.768Z,1955
2017-07-29T14:13:46.760Z,3730
2017-07-29T14:14:57.067Z,3535
2017-07-29T14:16:07.606Z,3480
2017-07-29T14:17:17.612Z,3590
2017-07-29T14:18:27.590Z,880
2017-07-29T14:19:37.916Z,805
2017-07-29T14:20:48.231Z,930
2017-07-29T14:21:58.793Z,3270
2017-07-29T14:23:09.112Z,2190
2017-07-29T14:24:19.089Z,1275
2017-07-29T14:25:29.394Z,880
2017-07-29T14:26:39.060Z,740
2017-07-29T14:27:49.292Z,685
2017-07-29T14:28:59.279Z,655
2017-07-29T14:30:09.255Z,650
2017-07-29T14:31:19.207Z,860
2017-07-29T14:32:29.177Z,2295
2017-07-29T14:33:39.411Z,2530
2017-07-29T14:34:49.697Z,1005
2017-07-29T14:35:59.981Z,1520
2017-07-29T14:37:10.267Z,3140
2017-07-29T14:38:20.561Z,1590
2017-07-29T14:39:30.793Z,2630
2017-07-29T14:40:41.075Z,2840
2017-07-29T14:41:51.044Z,2155
2017-07-29T14:43:01.332Z,2210
2017-07-29T14:44:11.301Z,2995
2017-07-29T14:45:21.840Z,3040
2017-07-29T14:46:31.803Z,3045
2017-07-29T14:47:42.094Z,2815
2017-07-29T14:48:52.377Z,1270
2017-07-29T14:50:02.363Z,1045
2017-07-29T14:51:12.585Z,955
2017-07-29T14:52:22.886Z,1205
2017-07-29T14:53:33.173Z,1125
2017-07-29T14:54:43.439Z,900
2017-07-29T14:55:53.434Z,850
2017-07-29T14:57:03.975Z,985
2017-07-29T14:58:14.270Z,3870
2017-07-29T14:59:24.243Z,2800
2017-07-29T15:00:34.225Z,3695
2017-07-29T15:01:44.195Z,2410
2017-07-29T15:02:54.407Z,3055
2017-07-29T15:04:04.407Z,2335
2017-07-29T15:05:14.076Z,2910
2017-07-29T15:06:24.370Z,3035
2017-07-29T15:07:34.669Z,3095
2017-07-29T15:08:45.206Z,2720
2017-07-29T15:09:55.203Z,2440
2017-07-29T15:11:05.182Z,2510
2017-07-29T15:12:15.160Z,2385
2017-07-29T15:13:25.151Z,2525
2017-07-29T15:14:35.412Z,2410
2017-07-29T15:15:45.705Z,2095
2017-07-29T15:16:55.996Z,2345
2017-07-29T15:18:05.668Z,1890
2017-07-29T15:19:15.953Z,2285
2017-07-29T15:20:26.239Z,1305
2017-07-29T15:21:36.220Z,2720
2017-07-29T15:22:46.492Z,1085
2017-07-29T15:23:56.783Z,1110
2017-07-29T15:25:07.110Z,1005
2017-07-29T15:26:17.635Z,1135
2017-07-29T15:27:27.616Z,1815
2017-07-29T15:28:37.914Z,2295
2017-07-29T15:29:48.214Z,1805
2017-07-29T15:30:58.491Z,1250
2017-07-29T15:32:09.030Z,2415
2017-07-29T15:33:19.305Z,2415
2017-07-29T15:34:29.316Z,2210
2017-07-29T15:35:39.595Z,1030
2017-07-29T15:36:49.889Z,620
2017-07-29T15:38:00.435Z,545
2017-07-29T15:39:10.714Z,540
2017-07-29T15:40:20.997Z,565
2017-07-29T15:41:30.970Z,600
2017-07-29T15:42:41.250Z,665
2017-07-29T15:43:51.803Z,710
2017-07-29T15:45:01.779Z,760
2017-07-29T15:46:11.761Z,800
2017-07-29T15:47:21.741Z,1200
2017-07-29T15:48:31.729Z,2185
2017-07-29T15:49:42.258Z,1835
2017-07-29T15:50:52.230Z,1300
2017-07-29T15:52:02.508Z,1325
2017-07-29T15:53:12.789Z,1355
2017-07-29T15:54:23.075Z,2235
2017-07-29T15:55:33.617Z,2300
2017-07-29T15:56:43.919Z,2335
2017-07-29T15:57:53.898Z,2270
2017-07-29T15:59:04.404Z,1410
2017-07-29T16:00:14.707Z,2350
2017-07-29T16:01:25.254Z,2370
2017-07-29T16:02:35.216Z,2260
2017-07-29T16:03:45.211Z,1740
2017-07-29T16:04:55.510Z,2120
2017-07-29T16:06:05.794Z,2200
2017-07-29T16:07:16.332Z,2030
2017-07-29T16:08:26.306Z,1620
2017-07-29T16:09:35.977Z,885